Terminal Aerodrome Forecast
Issued by NWS

Current Version | Previous Version | Text Only | Print | Product List | Glossary Off
Versions: 1 2 3 4 5 6 7 8 9 10 11 12 13 14 15 16 17 18 19 20 21 22 23 24 25 26 27 28

562
FTUS41 KILN 040358 AAA
TAFLUK
TAF AMD
KLUK 040358Z 0404/0424 00000KT P6SM SCT035 BKN120
      TEMPO 0404/0408 BKN035
     FM041400 11006KT P6SM BKN050
     FM041900 14007KT P6SM -SHRA OVC028=

USA.gov is the U.S. government's official web portal to all federal, state and local government web resources and services.